createdAt,value
2019-05-19T00:02:27.525Z,11.08
2019-05-19T00:04:56.468Z,10.98
2019-05-19T00:07:25.163Z,10.65
2019-05-19T00:09:53.969Z,11.25
2019-05-19T00:12:22.742Z,11.73
2019-05-19T00:14:51.697Z,9.30
2019-05-19T00:17:20.429Z,10.88
2019-05-19T00:19:49.245Z,10.55
2019-05-19T00:22:18.201Z,9.98
2019-05-19T00:24:47.002Z,10.60
2019-05-19T00:27:16.151Z,10.68
2019-05-19T00:29:44.940Z,10.75
2019-05-19T00:32:13.901Z,10.38
2019-05-19T00:34:42.641Z,12.03
2019-05-19T00:37:11.416Z,10.82
2019-05-19T00:39:40.392Z,11.00
2019-05-19T00:42:09.163Z,9.88
2019-05-19T00:44:37.910Z,10.55
2019-05-19T00:47:06.874Z,9.98
2019-05-19T00:49:41.349Z,9.78
2019-05-19T00:52:07.679Z,10.28
2019-05-19T00:54:36.753Z,11.57
2019-05-19T00:57:06.698Z,9.98
2019-05-19T00:59:36.479Z,10.48
2019-05-19T01:02:05.580Z,10.43
2019-05-19T01:04:34.303Z,10.70
2019-05-19T01:07:02.995Z,10.68
2019-05-19T01:09:31.835Z,11.20
2019-05-19T01:12:00.514Z,10.28
2019-05-19T01:14:29.215Z,10.83
2019-05-19T01:16:58.003Z,10.08
2019-05-19T01:19:26.679Z,11.22
2019-05-19T01:21:57.990Z,10.15
2019-05-19T01:24:26.810Z,9.15
2019-05-19T01:26:55.538Z,10.00
2019-05-19T01:29:24.230Z,9.25
2019-05-19T01:31:53.089Z,9.30
2019-05-19T01:34:21.795Z,9.23
2019-05-19T01:36:50.559Z,9.48
2019-05-19T01:39:19.475Z,8.88
2019-05-19T01:41:48.151Z,8.45
2019-05-19T01:44:16.847Z,9.53
2019-05-19T01:46:45.832Z,8.60
2019-05-19T01:49:14.570Z,8.30
2019-05-19T01:51:43.341Z,8.43
2019-05-19T01:54:12.254Z,8.33
2019-05-19T01:56:40.987Z,8.43
2019-05-19T01:59:10.053Z,7.83
2019-05-19T02:01:39.412Z,7.37
2019-05-19T02:04:08.189Z,7.85
2019-05-19T02:06:37.109Z,7.35
2019-05-19T02:09:06.943Z,8.08
2019-05-19T02:11:35.666Z,7.40
2019-05-19T02:14:04.611Z,6.80
2019-05-19T02:16:33.335Z,7.47
2019-05-19T02:19:02.460Z,7.87
2019-05-19T02:21:31.296Z,7.62
2019-05-19T02:24:00.647Z,6.85
2019-05-19T02:26:29.358Z,7.55
2019-05-19T02:28:58.275Z,7.15
2019-05-19T02:31:27.768Z,7.42
2019-05-19T02:33:56.903Z,7.23
2019-05-19T02:36:25.928Z,7.50
2019-05-19T02:38:54.836Z,7.33
2019-05-19T02:41:26.948Z,7.30
2019-05-19T02:43:57.349Z,7.20
2019-05-19T02:46:27.369Z,6.87
2019-05-19T02:48:56.930Z,6.95
2019-05-19T02:51:28.607Z,7.37
2019-05-19T02:53:58.275Z,7.65
2019-05-19T02:56:28.083Z,6.95
2019-05-19T02:58:57.393Z,7.30
2019-05-19T03:01:26.290Z,8.33
2019-05-19T03:03:54.968Z,6.75
2019-05-19T03:06:24.212Z,7.33
2019-05-19T03:08:53.079Z,7.12
2019-05-19T03:11:21.893Z,7.17
2019-05-19T03:13:50.787Z,6.85
2019-05-19T03:16:19.951Z,7.58
2019-05-19T03:18:48.723Z,7.08
2019-05-19T03:21:17.502Z,6.12
2019-05-19T03:23:46.661Z,6.50
2019-05-19T03:26:15.392Z,6.65
2019-05-19T03:28:44.363Z,7.35
2019-05-19T03:31:20.837Z,6.27
2019-05-19T03:33:50.482Z,6.62
2019-05-19T03:36:19.538Z,6.00
2019-05-19T03:38:48.273Z,6.83
2019-05-19T03:41:17.145Z,7.12
2019-05-19T03:43:45.820Z,6.78
2019-05-19T03:46:14.557Z,6.20
2019-05-19T03:48:43.278Z,6.33
2019-05-19T03:51:29.156Z,6.05
2019-05-19T03:53:42.486Z,6.03
2019-05-19T03:56:11.290Z,6.05
2019-05-19T03:58:39.971Z,6.03
2019-05-19T04:01:08.760Z,6.28
2019-05-19T04:03:37.670Z,6.20
2019-05-19T04:06:06.510Z,6.25
2019-05-19T04:08:35.213Z,6.87
2019-05-19T04:11:04.342Z,6.95
2019-05-19T04:13:33.039Z,6.45
2019-05-19T04:16:02.008Z,7.37
2019-05-19T04:18:30.716Z,5.85
2019-05-19T04:20:59.386Z,6.72
2019-05-19T04:23:28.247Z,6.58
2019-05-19T04:25:57.013Z,6.15
2019-05-19T04:28:25.711Z,6.60
2019-05-19T04:30:54.536Z,6.50
2019-05-19T04:33:23.521Z,6.05
2019-05-19T04:35:52.196Z,6.55
2019-05-19T04:38:21.109Z,7.28
2019-05-19T04:40:49.785Z,6.85
2019-05-19T04:43:18.471Z,7.05
2019-05-19T04:45:47.238Z,6.78
2019-05-19T04:48:15.898Z,6.30
2019-05-19T04:50:44.588Z,6.62
2019-05-19T04:53:13.717Z,6.85
2019-05-19T04:55:42.699Z,6.20
2019-05-19T04:58:11.786Z,6.28
2019-05-19T05:00:40.860Z,7.40
2019-05-19T05:03:09.731Z,6.05
2019-05-19T05:05:39.291Z,6.97
2019-05-19T05:08:27.204Z,7.08
2019-05-19T05:10:39.422Z,7.27
2019-05-19T05:13:08.114Z,7.03
2019-05-19T05:15:36.792Z,6.95
2019-05-19T05:18:05.564Z,6.55
2019-05-19T05:20:34.370Z,7.12
2019-05-19T05:23:03.106Z,7.15
2019-05-19T05:25:31.893Z,6.78
2019-05-19T05:28:01.050Z,6.95
2019-05-19T05:30:30.265Z,7.42
2019-05-19T05:32:58.969Z,6.83
2019-05-19T05:35:30.218Z,6.28
2019-05-19T05:37:58.892Z,6.35
2019-05-19T05:40:27.558Z,6.87
2019-05-19T05:42:56.622Z,6.70
2019-05-19T05:45:25.530Z,7.00
2019-05-19T05:47:54.604Z,6.20
2019-05-19T05:50:23.512Z,6.37
2019-05-19T05:52:52.169Z,7.25
2019-05-19T05:55:20.849Z,7.35
2019-05-19T05:57:50.107Z,6.55
2019-05-19T06:00:19.722Z,6.47
2019-05-19T06:02:48.395Z,6.20
2019-05-19T06:05:17.102Z,7.00
2019-05-19T06:07:46.229Z,7.73
2019-05-19T06:10:16.087Z,7.33
2019-05-19T06:12:45.289Z,7.47
2019-05-19T06:15:14.630Z,7.10
2019-05-19T06:17:43.551Z,6.83
2019-05-19T06:20:12.416Z,7.33
2019-05-19T06:22:55.248Z,7.33
2019-05-19T06:25:11.664Z,7.47
2019-05-19T06:27:40.467Z,7.50
2019-05-19T06:30:09.522Z,6.92
2019-05-19T06:32:44.917Z,7.03
2019-05-19T06:35:14.018Z,7.72
2019-05-19T06:37:42.694Z,7.37
2019-05-19T06:40:12.727Z,7.55
2019-05-19T06:42:41.833Z,7.10
2019-05-19T06:45:10.849Z,7.08
2019-05-19T06:47:39.544Z,7.05
2019-05-19T06:50:08.812Z,7.37
2019-05-19T06:52:37.562Z,6.90
2019-05-19T06:55:13.350Z,7.17
2019-05-19T06:57:51.280Z,7.58
2019-05-19T07:00:20.504Z,6.70
2019-05-19T07:02:49.531Z,6.28
2019-05-19T07:05:21.505Z,6.62
2019-05-19T07:07:50.244Z,7.50
2019-05-19T07:10:19.262Z,6.45
2019-05-19T07:12:48.377Z,6.83
2019-05-19T07:15:17.362Z,5.78
2019-05-19T07:17:46.339Z,6.83
2019-05-19T07:20:15.097Z,6.23
2019-05-19T07:22:44.086Z,6.03
2019-05-19T07:25:13.244Z,6.37
2019-05-19T07:27:42.393Z,5.95
2019-05-19T07:30:11.590Z,6.20
2019-05-19T07:32:40.581Z,5.83
2019-05-19T07:35:09.876Z,5.83
2019-05-19T07:37:38.825Z,5.95
2019-05-19T07:40:07.782Z,5.80
2019-05-19T07:42:36.694Z,5.53
2019-05-19T07:45:06.183Z,5.28
2019-05-19T07:47:34.943Z,5.40
2019-05-19T07:50:04.311Z,5.60
2019-05-19T07:52:33.024Z,5.05
2019-05-19T07:55:01.748Z,5.10
2019-05-19T07:57:30.807Z,5.30
2019-05-19T07:59:59.918Z,4.72
2019-05-19T08:02:28.698Z,4.00
2019-05-19T08:04:57.812Z,4.15
2019-05-19T08:07:26.524Z,3.70
2019-05-19T08:09:55.301Z,3.65
2019-05-19T08:12:24.855Z,4.37
2019-05-19T08:14:53.563Z,4.50
2019-05-19T08:17:25.748Z,3.77
2019-05-19T08:19:52.893Z,4.62
2019-05-19T08:22:21.633Z,4.00
2019-05-19T08:24:50.836Z,4.05
2019-05-19T08:27:19.644Z,4.33
2019-05-19T08:29:48.630Z,4.47
2019-05-19T08:32:17.443Z,3.98
2019-05-19T08:34:46.128Z,4.22
2019-05-19T08:37:15.033Z,4.08
2019-05-19T08:39:43.850Z,3.92
2019-05-19T08:42:15.626Z,3.95
2019-05-19T08:44:44.294Z,3.55
2019-05-19T08:47:13.001Z,4.00
2019-05-19T08:49:41.855Z,4.30
2019-05-19T08:52:10.519Z,4.30
2019-05-19T08:54:39.300Z,3.70
2019-05-19T08:57:08.646Z,4.22
2019-05-19T08:59:37.433Z,3.30
2019-05-19T09:02:09.365Z,3.85
2019-05-19T09:04:38.241Z,3.58
2019-05-19T09:07:07.207Z,3.37
2019-05-19T09:09:35.894Z,4.00
2019-05-19T09:12:04.655Z,3.90
2019-05-19T09:14:33.514Z,3.77
2019-05-19T09:17:02.353Z,4.33
2019-05-19T09:19:31.467Z,4.28
2019-05-19T09:22:00.654Z,2.98
2019-05-19T09:24:31.059Z,3.58
2019-05-19T09:27:00.193Z,2.95
2019-05-19T09:29:29.002Z,3.67
2019-05-19T09:31:57.842Z,3.83
2019-05-19T09:34:26.803Z,4.17
2019-05-19T09:36:55.630Z,3.73
2019-05-19T09:39:24.305Z,4.17
2019-05-19T09:41:53.389Z,3.67
2019-05-19T09:44:31.645Z,3.50
2019-05-19T09:47:00.427Z,3.60
2019-05-19T09:49:32.622Z,3.75
2019-05-19T09:52:01.809Z,3.45
2019-05-19T09:54:44.232Z,3.45
2019-05-19T09:57:01.910Z,3.37
2019-05-19T09:59:30.839Z,3.72
2019-05-19T10:01:59.555Z,2.90
2019-05-19T10:04:28.842Z,3.17
2019-05-19T10:06:57.806Z,3.22
2019-05-19T10:09:57.048Z,2.45
2019-05-19T10:12:26.179Z,3.10
2019-05-19T10:14:55.374Z,3.08
2019-05-19T10:17:25.619Z,3.22
2019-05-19T10:19:54.443Z,2.70
2019-05-19T10:22:23.735Z,2.87
2019-05-19T10:25:04.492Z,2.90
2019-05-19T10:27:23.376Z,3.30
2019-05-19T10:29:52.073Z,2.87
2019-05-19T10:32:21.060Z,3.12
2019-05-19T10:34:49.797Z,3.15
2019-05-19T10:37:18.477Z,3.80
2019-05-19T10:39:47.392Z,3.20
2019-05-19T10:42:16.278Z,3.47
2019-05-19T10:44:45.002Z,3.58
2019-05-19T10:47:13.773Z,3.10
2019-05-19T10:49:43.162Z,3.80
2019-05-19T10:52:12.044Z,3.63
2019-05-19T10:54:40.781Z,3.40
2019-05-19T10:57:09.962Z,3.50
2019-05-19T10:59:38.749Z,3.75
2019-05-19T11:02:07.928Z,3.12
2019-05-19T11:04:36.635Z,3.20
2019-05-19T11:07:05.375Z,2.92
2019-05-19T11:09:34.582Z,3.47
2019-05-19T11:12:04.255Z,2.47
2019-05-19T11:14:32.929Z,3.62
2019-05-19T11:17:01.974Z,3.62
2019-05-19T11:19:31.295Z,2.75
2019-05-19T11:22:00.282Z,3.15
2019-05-19T11:24:32.739Z,3.20
2019-05-19T11:27:01.668Z,3.58
2019-05-19T11:29:30.506Z,3.70
2019-05-19T11:31:59.221Z,3.10
2019-05-19T11:34:28.339Z,3.85
2019-05-19T11:36:57.246Z,3.92
2019-05-19T11:39:26.562Z,3.80
2019-05-19T11:41:55.290Z,3.65
2019-05-19T11:44:24.496Z,4.15
2019-05-19T11:46:53.539Z,3.47
2019-05-19T11:49:22.503Z,2.95
2019-05-19T11:51:51.198Z,3.72
2019-05-19T11:54:20.313Z,2.65
2019-05-19T11:56:49.390Z,3.50
2019-05-19T11:59:18.109Z,3.35
2019-05-19T12:01:47.432Z,3.30
2019-05-19T12:04:16.214Z,3.67
2019-05-19T12:06:44.935Z,4.17
2019-05-19T12:09:13.717Z,3.72
2019-05-19T12:11:43.739Z,3.90
2019-05-19T12:14:12.700Z,3.70
2019-05-19T12:16:41.875Z,3.98
2019-05-19T12:19:10.629Z,4.03
2019-05-19T12:21:39.504Z,3.72
2019-05-19T12:24:08.324Z,4.10
2019-05-19T12:26:37.282Z,3.80
2019-05-19T12:29:05.970Z,3.73
2019-05-19T12:31:34.852Z,4.17
2019-05-19T12:34:03.747Z,4.10
2019-05-19T12:36:32.433Z,3.12
2019-05-19T12:39:01.230Z,4.03
2019-05-19T12:41:29.988Z,4.40
2019-05-19T12:43:59.084Z,4.40
2019-05-19T12:46:27.959Z,4.33
2019-05-19T12:48:56.928Z,4.37
2019-05-19T12:51:26.863Z,4.00
2019-05-19T12:53:55.934Z,4.37
2019-05-19T12:56:38.579Z,3.92
2019-05-19T12:58:55.195Z,4.50
2019-05-19T13:01:24.435Z,3.98
2019-05-19T13:03:53.434Z,3.90
2019-05-19T13:06:22.298Z,3.90
2019-05-19T13:08:54.132Z,4.73
2019-05-19T13:11:22.995Z,4.60
2019-05-19T13:13:51.739Z,4.05
2019-05-19T13:16:20.486Z,4.35
2019-05-19T13:18:49.208Z,3.83
2019-05-19T13:21:19.324Z,4.28
2019-05-19T13:23:48.635Z,4.30
2019-05-19T13:26:18.364Z,4.18
2019-05-19T13:28:47.052Z,4.23
2019-05-19T13:31:15.818Z,3.77
2019-05-19T13:33:44.508Z,3.80
2019-05-19T13:36:13.233Z,3.98
2019-05-19T13:38:44.423Z,3.60
2019-05-19T13:41:13.144Z,3.50
2019-05-19T13:43:41.893Z,3.50
2019-05-19T13:46:10.755Z,4.47
2019-05-19T13:48:39.420Z,3.98
2019-05-19T13:51:08.511Z,4.28
2019-05-19T13:53:37.254Z,3.67
2019-05-19T13:56:06.147Z,3.02
2019-05-19T13:58:35.070Z,3.62
2019-05-19T14:01:03.928Z,3.65
2019-05-19T14:03:32.846Z,4.00
2019-05-19T14:06:01.505Z,4.00
2019-05-19T14:08:30.294Z,3.60
2019-05-19T14:10:59.103Z,4.35
2019-05-19T14:13:27.970Z,4.22
2019-05-19T14:15:56.678Z,4.55
2019-05-19T14:18:25.379Z,5.20
2019-05-19T14:20:54.252Z,4.65
2019-05-19T14:23:23.402Z,4.72
2019-05-19T14:25:53.030Z,5.90
2019-05-19T14:28:21.804Z,4.87
2019-05-19T14:30:50.627Z,4.92
2019-05-19T14:33:19.630Z,4.85
2019-05-19T14:35:48.628Z,4.95
2019-05-19T14:38:17.363Z,3.40
2019-05-19T14:40:46.348Z,4.10
2019-05-19T14:43:17.375Z,4.90
2019-05-19T14:45:46.146Z,5.33
2019-05-19T14:48:15.073Z,5.25
2019-05-19T14:50:44.194Z,4.35
2019-05-19T14:53:13.153Z,4.70
2019-05-19T14:55:42.090Z,4.50
2019-05-19T14:58:10.787Z,4.10
2019-05-19T15:00:40.076Z,5.25
2019-05-19T15:03:09.018Z,4.28
2019-05-19T15:05:37.799Z,3.90
2019-05-19T15:08:06.966Z,3.67
2019-05-19T15:10:35.733Z,4.10
2019-05-19T15:13:04.458Z,3.98
2019-05-19T15:15:33.196Z,4.22
2019-05-19T15:18:02.523Z,4.05
2019-05-19T15:20:31.227Z,3.62
2019-05-19T15:22:59.942Z,3.95
2019-05-19T15:25:29.051Z,3.77
2019-05-19T15:28:05.220Z,3.62
2019-05-19T15:30:32.559Z,3.98
2019-05-19T15:33:01.298Z,4.05
2019-05-19T15:35:30.022Z,3.33
2019-05-19T15:37:59.328Z,3.37
2019-05-19T15:40:28.245Z,3.92
2019-05-19T15:42:57.932Z,4.17
2019-05-19T15:45:27.197Z,5.05
2019-05-19T15:47:55.923Z,4.28
2019-05-19T15:50:24.715Z,5.15
2019-05-19T15:52:53.804Z,4.60
2019-05-19T15:55:22.486Z,5.28
2019-05-19T15:57:51.256Z,5.10
2019-05-19T16:00:21.944Z,5.00
2019-05-19T16:02:50.909Z,4.60
2019-05-19T16:05:19.661Z,5.22
2019-05-19T16:07:49.038Z,4.80
2019-05-19T16:10:20.870Z,5.05
2019-05-19T16:12:49.606Z,4.70
2019-05-19T16:15:19.962Z,5.25
2019-05-19T16:17:48.708Z,4.90
2019-05-19T16:20:18.079Z,5.00
2019-05-19T16:22:46.962Z,4.80
2019-05-19T16:25:18.955Z,5.58
2019-05-19T16:27:47.785Z,4.37
2019-05-19T16:30:17.731Z,5.37
2019-05-19T16:32:46.673Z,4.53
2019-05-19T16:35:15.731Z,4.47
2019-05-19T16:37:44.567Z,4.55
2019-05-19T16:40:13.832Z,4.72
2019-05-19T16:42:42.622Z,4.83
2019-05-19T16:45:11.515Z,4.50
2019-05-19T16:47:40.318Z,4.35
2019-05-19T16:50:10.494Z,5.00
2019-05-19T16:52:39.357Z,5.05
2019-05-19T16:55:36.430Z,5.05
2019-05-19T16:58:20.232Z,4.87
2019-05-19T17:00:35.726Z,4.92
2019-05-19T17:03:04.686Z,4.85
2019-05-19T17:05:33.442Z,5.28
2019-05-19T17:08:02.170Z,5.55
2019-05-19T17:10:30.886Z,4.95
2019-05-19T17:12:59.946Z,4.92
2019-05-19T17:15:28.612Z,5.33
2019-05-19T17:17:57.417Z,5.60
2019-05-19T17:20:26.423Z,5.70
2019-05-19T17:22:55.382Z,5.55
2019-05-19T17:25:24.718Z,5.40
2019-05-19T17:27:53.727Z,5.30
2019-05-19T17:30:23.319Z,5.60
2019-05-19T17:32:52.781Z,5.97
2019-05-19T17:35:21.496Z,5.83
2019-05-19T17:37:50.480Z,5.53
2019-05-19T17:40:19.558Z,5.83
2019-05-19T17:42:48.653Z,6.00
2019-05-19T17:45:17.686Z,6.20
2019-05-19T17:47:46.646Z,6.75
2019-05-19T17:50:17.127Z,6.55
2019-05-19T17:52:45.896Z,6.12
2019-05-19T17:55:14.975Z,6.50
2019-05-19T17:57:45.489Z,6.97
2019-05-19T18:00:18.579Z,5.10
2019-05-19T18:02:47.380Z,6.45
2019-05-19T18:05:16.367Z,6.78
2019-05-19T18:07:45.112Z,6.95
2019-05-19T18:10:13.844Z,7.03
2019-05-19T18:12:42.544Z,7.03
2019-05-19T18:15:11.366Z,6.87
2019-05-19T18:17:40.271Z,7.28
2019-05-19T18:20:22.702Z,7.15
2019-05-19T18:22:39.426Z,7.37
2019-05-19T18:25:08.182Z,6.97
2019-05-19T18:27:38.623Z,6.95
2019-05-19T18:30:07.726Z,7.40
2019-05-19T18:32:36.407Z,5.67
2019-05-19T18:35:05.823Z,6.42
2019-05-19T18:37:34.703Z,6.65
2019-05-19T18:40:03.677Z,6.50
2019-05-19T18:42:32.607Z,6.78
2019-05-19T18:45:04.327Z,6.40
2019-05-19T18:47:33.574Z,5.85
2019-05-19T18:50:02.313Z,6.12
2019-05-19T18:52:31.003Z,6.15
2019-05-19T18:55:00.026Z,6.10
2019-05-19T18:57:29.013Z,5.75
2019-05-19T18:59:57.683Z,5.78
2019-05-19T19:02:26.477Z,5.17
2019-05-19T19:04:55.543Z,5.70
2019-05-19T19:07:43.699Z,5.53
2019-05-19T19:10:12.458Z,5.62
2019-05-19T19:12:41.334Z,4.83
2019-05-19T19:15:10.377Z,4.72
2019-05-19T19:17:39.161Z,5.55
2019-05-19T19:20:08.138Z,5.42
2019-05-19T19:22:36.839Z,5.58
2019-05-19T19:25:05.736Z,4.97
2019-05-19T19:27:34.624Z,5.60
2019-05-19T19:30:04.284Z,5.75
2019-05-19T19:32:33.326Z,5.17
2019-05-19T19:35:02.070Z,4.77
2019-05-19T19:37:30.973Z,5.83
2019-05-19T19:39:59.847Z,5.50
2019-05-19T19:42:28.573Z,5.35
2019-05-19T19:44:57.579Z,4.97
2019-05-19T19:47:26.379Z,5.30
2019-05-19T19:49:55.388Z,5.95
2019-05-19T19:52:24.427Z,5.40
2019-05-19T19:54:53.242Z,5.33
2019-05-19T19:57:22.351Z,5.20
2019-05-19T19:59:51.428Z,5.25
2019-05-19T20:02:20.320Z,5.15
2019-05-19T20:04:48.609Z,5.35
2019-05-19T20:07:17.327Z,4.90
2019-05-19T20:09:46.082Z,5.10
2019-05-19T20:12:14.987Z,4.78
2019-05-19T20:14:43.684Z,4.85
2019-05-19T20:17:12.824Z,5.15
2019-05-19T20:19:41.574Z,5.40
2019-05-19T20:22:10.576Z,5.28
2019-05-19T20:24:39.464Z,4.85
2019-05-19T20:27:08.205Z,5.50
2019-05-19T20:29:37.107Z,5.08
2019-05-19T20:32:06.175Z,5.47
2019-05-19T20:34:35.329Z,5.50
2019-05-19T20:37:04.134Z,6.30
2019-05-19T20:39:33.150Z,5.78
2019-05-19T20:42:02.463Z,5.53
2019-05-19T20:44:31.335Z,6.10
2019-05-19T20:47:00.311Z,6.35
2019-05-19T20:49:29.038Z,7.00
2019-05-19T20:51:58.010Z,6.42
2019-05-19T20:54:27.106Z,6.25
2019-05-19T20:56:58.315Z,7.15
2019-05-19T20:59:27.330Z,7.28
2019-05-19T21:01:57.315Z,6.72
2019-05-19T21:04:26.183Z,6.95
2019-05-19T21:06:55.018Z,6.28
2019-05-19T21:09:23.850Z,7.00
2019-05-19T21:11:52.855Z,7.78
2019-05-19T21:14:21.514Z,7.50
2019-05-19T21:16:50.575Z,7.17
2019-05-19T21:19:19.502Z,7.33
2019-05-19T21:21:48.201Z,7.87
2019-05-19T21:24:17.021Z,6.90
2019-05-19T21:26:45.674Z,7.42
2019-05-19T21:29:14.345Z,7.08
2019-05-19T21:31:43.410Z,7.77
2019-05-19T21:34:12.091Z,7.62
2019-05-19T21:36:40.766Z,8.05
2019-05-19T21:39:09.575Z,7.42
2019-05-19T21:41:38.491Z,7.83
2019-05-19T21:44:07.598Z,8.13
2019-05-19T21:46:36.350Z,8.30
2019-05-19T21:49:05.058Z,7.97
2019-05-19T21:51:33.996Z,7.58
2019-05-19T21:54:02.964Z,7.42
2019-05-19T21:56:31.691Z,7.67
2019-05-19T21:59:00.526Z,8.53
2019-05-19T22:01:29.941Z,8.83
2019-05-19T22:03:58.787Z,9.00
2019-05-19T22:06:29.321Z,7.90
2019-05-19T22:08:58.422Z,9.00
2019-05-19T22:11:27.227Z,9.68
2019-05-19T22:13:56.143Z,8.88
2019-05-19T22:16:25.110Z,8.28
2019-05-19T22:18:53.854Z,8.20
2019-05-19T22:21:22.750Z,8.73
2019-05-19T22:23:51.557Z,8.90
2019-05-19T22:26:20.279Z,8.43
2019-05-19T22:28:49.063Z,8.48
2019-05-19T22:31:17.757Z,7.70
2019-05-19T22:33:46.444Z,7.90
2019-05-19T22:36:15.356Z,8.83
2019-05-19T22:38:44.336Z,9.65
2019-05-19T22:41:13.060Z,8.33
2019-05-19T22:43:42.015Z,8.53
2019-05-19T22:46:10.839Z,8.98
2019-05-19T22:48:39.939Z,8.75
2019-05-19T22:51:08.728Z,8.90
2019-05-19T22:53:37.551Z,9.03
2019-05-19T22:56:06.583Z,8.68
2019-05-19T22:58:35.726Z,8.38
2019-05-19T23:01:04.654Z,9.60
2019-05-19T23:03:33.587Z,9.00
2019-05-19T23:06:02.378Z,8.43
2019-05-19T23:08:31.106Z,8.40
2019-05-19T23:10:59.782Z,9.20
2019-05-19T23:13:28.778Z,8.88
2019-05-19T23:15:57.526Z,8.85
2019-05-19T23:18:26.205Z,8.55
2019-05-19T23:20:55.166Z,9.35
2019-05-19T23:23:23.934Z,9.33
2019-05-19T23:25:52.846Z,9.17
2019-05-19T23:28:21.518Z,8.05
2019-05-19T23:30:50.292Z,9.20
2019-05-19T23:33:18.970Z,9.08
2019-05-19T23:35:47.626Z,9.88
2019-05-19T23:38:16.533Z,9.48
2019-05-19T23:40:45.251Z,8.78
2019-05-19T23:43:14.170Z,11.05
2019-05-19T23:45:44.306Z,9.73
2019-05-19T23:48:13.056Z,9.98
2019-05-19T23:50:41.785Z,9.73
2019-05-19T23:53:10.519Z,10.10
2019-05-19T23:55:39.472Z,9.65
2019-05-19T23:58:08.293Z,10.43
